Villa Guasayan, Argentina
Current Conditions -  °F | °C
As of 5:00 PM on Thursday 23 Oct 2014 (Local Time) from SANT Reporting Station
Scattered Clouds Scattered Clouds  
Wind Chill: 24°   Ceiling: Unl
Heat Index: 24°   Visibility: 4mi
Dew Point: 20°   Wind: 6mph
Humidity: 78%   Direction: 320°NW
Pressure: 29.91"   Gusts: NA
Location:  27.88°S, 64.85°W
Report Text: SANT 232000Z 32005KT 7000 SCT035 SCT045TCUFEW050CB 24/20 Q1013
Loading
Personal Weather Stations






























Interactive Weather Map
Tropical Storm Tracking
New forecast layout! Learn more

10-Day Weather Forecast

Advertisements
Track Severe Weather on mobile